Time;durP1;ratioP1;P1;durP2;ratioP2;P2;SDS_P1;SDS_P2;PMS_P1;PMS_P2;Temp;Humidity;BMP_temperature;BMP_pressure;BME280_temperature;BME280_humidity;BME280_pressure;Samples;Min_cycle;Max_cycle;Signal;HPM_P1;HPM_P2
2022/10/28 04:04:45;;;;;;;3.60;3.30;;;12.90;99.90;;;;;;5538409;22;20899;-69
2022/10/28 04:07:11;;;;;;;4.30;3.07;;;12.90;99.90;;;;;;5033541;28;20412;-64
2022/10/28 04:09:36;;;;;;;3.10;2.37;;;12.90;99.90;;;;;;5050459;28;20191;-66
2022/10/28 04:12:02;;;;;;;4.80;2.83;;;12.90;99.90;;;;;;5050745;28;20543;-63
2022/10/28 04:14:28;;;;;;;3.37;2.57;;;12.90;99.90;;;;;;5041592;28;20208;-65
2022/10/28 04:16:53;;;;;;;4.07;3.23;;;12.90;99.90;;;;;;5033563;28;20749;-67
2022/10/28 04:19:19;;;;;;;8.40;3.60;;;13.00;99.90;;;;;;5018322;28;20573;-65
2022/10/28 04:21:44;;;;;;;3.03;2.83;;;12.90;99.90;;;;;;5013740;28;20228;-67
2022/10/28 04:24:10;;;;;;;4.73;4.13;;;12.90;99.90;;;;;;4995060;28;20189;-63
2022/10/28 04:26:35;;;;;;;2.93;2.73;;;12.80;99.90;;;;;;5012942;28;20256;-67
2022/10/28 04:29:01;;;;;;;4.20;3.80;;;12.80;99.90;;;;;;5019062;28;20231;-66
2022/10/28 04:31:27;;;;;;;4.97;3.20;;;12.70;99.90;;;;;;5013857;28;20205;-67
2022/10/28 04:33:52;;;;;;;3.90;2.90;;;12.70;99.90;;;;;;5022221;28;20208;-67
2022/10/28 04:36:18;;;;;;;8.60;2.87;;;12.70;99.90;;;;;;5033259;28;20548;-65
2022/10/28 04:38:43;;;;;;;10.00;3.10;;;12.70;99.90;;;;;;5030444;28;20291;-68
2022/10/28 04:41:13;;;;;;;7.90;3.50;;;12.70;99.90;;;;;;5036753;28;20180;-63
2022/10/28 04:43:38;;;;;;;3.80;3.50;;;12.80;99.90;;;;;;5029146;28;20190;-68
2022/10/28 04:46:04;;;;;;;3.43;3.10;;;12.80;99.90;;;;;;5016429;28;20410;-66
2022/10/28 04:48:31;;;;;;;3.10;2.90;;;12.90;99.90;;;;;;5017315;28;20208;-67
2022/10/28 04:50:57;;;;;;;4.33;2.83;;;12.90;99.90;;;;;;5015824;28;20463;-63
2022/10/28 04:53:22;;;;;;;6.40;3.60;;;12.90;99.90;;;;;;5017857;28;20452;-63
2022/10/28 04:55:48;;;;;;;3.90;3.37;;;12.90;99.90;;;;;;5016680;28;20201;-64
2022/10/28 04:58:13;;;;;;;2.40;2.20;;;12.90;99.90;;;;;;5017314;28;20168;-65
2022/10/28 05:00:39;;;;;;;4.53;2.87;;;12.90;99.90;;;;;;5017128;28;20212;-64
2022/10/28 05:03:04;;;;;;;3.90;3.60;;;13.00;99.90;;;;;;5013639;28;20242;-63
2022/10/28 05:05:30;;;;;;;3.77;3.13;;;13.00;99.90;;;;;;4997043;28;20715;-63
2022/10/28 05:07:56;;;;;;;2.83;2.63;;;13.00;99.90;;;;;;5015172;28;20178;-67
2022/10/28 05:10:22;;;;;;;6.60;2.97;;;13.00;99.90;;;;;;5016306;28;20409;-69
2022/10/28 05:12:47;;;;;;;11.03;3.23;;;13.00;99.90;;;;;;5021206;28;20205;-69
2022/10/28 05:15:14;;;;;;;3.33;3.03;;;13.00;99.90;;;;;;5017514;28;20231;-68
2022/10/28 05:17:44;;;;;;;4.07;3.10;;;13.00;99.90;;;;;;4998200;28;20470;-63
2022/10/28 05:20:11;;;;;;;4.07;3.00;;;13.00;99.90;;;;;;5017230;28;20412;-67
2022/10/28 05:22:37;;;;;;;3.23;2.83;;;13.00;99.90;;;;;;5036347;28;20759;-63
2022/10/28 05:25:04;;;;;;;6.40;4.07;;;13.10;99.90;;;;;;5027758;28;20689;-66
2022/10/28 05:27:29;;;;;;;5.70;2.40;;;13.20;99.90;;;;;;5015221;28;20181;-65
2022/10/28 05:29:55;;;;;;;3.57;3.10;;;13.20;99.90;;;;;;5030709;28;20428;-67
2022/10/28 05:32:20;;;;;;;4.13;3.03;;;13.30;99.90;;;;;;5016218;28;20257;-65
2022/10/28 05:34:46;;;;;;;3.37;2.90;;;13.40;99.90;;;;;;5015410;28;20214;-63
2022/10/28 05:37:11;;;;;;;3.27;2.87;;;13.40;99.90;;;;;;5027488;28;20220;-67
2022/10/28 05:39:37;;;;;;;3.83;3.47;;;13.50;99.90;;;;;;5025646;28;20253;-63
2022/10/28 05:42:03;;;;;;;7.43;3.30;;;13.40;99.90;;;;;;5016287;28;20228;-65
2022/10/28 05:44:28;;;;;;;6.23;3.00;;;13.40;99.90;;;;;;4998813;28;20683;-63
2022/10/28 05:46:55;;;;;;;3.93;3.10;;;13.40;99.90;;;;;;4998616;28;20182;-69
2022/10/28 05:49:21;;;;;;;4.33;3.53;;;13.30;99.90;;;;;;5015488;28;20166;-66
2022/10/28 05:51:47;;;;;;;4.37;3.70;;;13.30;99.90;;;;;;5016061;28;20405;-67
2022/10/28 05:54:12;;;;;;;2.80;2.50;;;13.30;99.90;;;;;;4998863;28;20499;-66
2022/10/28 05:56:38;;;;;;;3.90;2.93;;;13.30;99.90;;;;;;5015590;28;20672;-64
2022/10/28 05:59:04;;;;;;;5.30;3.70;;;13.30;99.90;;;;;;4998244;28;20181;-66
2022/10/28 06:01:29;;;;;;;5.70;4.27;;;13.40;99.90;;;;;;5015847;28;20219;-66
2022/10/28 06:03:55;;;;;;;3.90;3.10;;;13.40;99.90;;;;;;4997709;28;20596;-67
2022/10/28 06:06:20;;;;;;;7.07;3.20;;;13.40;99.90;;;;;;5015667;28;20190;-67
2022/10/28 06:08:46;;;;;;;4.83;3.43;;;13.50;99.90;;;;;;5015885;28;20189;-66
2022/10/28 06:11:12;;;;;;;5.80;3.40;;;13.50;99.90;;;;;;5015959;28;20183;-65
2022/10/28 06:13:37;;;;;;;7.00;4.07;;;13.50;99.90;;;;;;5015467;28;20252;-68
2022/10/28 06:16:03;;;;;;;6.93;3.30;;;13.50;99.90;;;;;;5015533;28;20205;-64
2022/10/28 06:18:29;;;;;;;4.00;3.13;;;13.50;99.90;;;;;;5015637;28;20182;-65
2022/10/28 06:20:56;;;;;;;4.80;3.60;;;13.50;99.90;;;;;;5016212;28;20485;-64
2022/10/28 06:23:23;;;;;;;3.17;2.97;;;13.50;99.90;;;;;;5016797;28;20170;-68
2022/10/28 06:25:49;;;;;;;4.83;3.63;;;13.40;99.90;;;;;;4995276;28;20522;-68
2022/10/28 06:28:15;;;;;;;5.83;3.57;;;13.40;99.90;;;;;;5013528;28;20407;-68
2022/10/28 06:30:41;;;;;;;2.93;2.73;;;13.40;99.90;;;;;;5012867;28;20441;-67
2022/10/28 06:33:07;;;;;;;3.73;3.00;;;13.40;99.90;;;;;;5012614;28;20483;-68
2022/10/28 06:35:32;;;;;;;3.40;2.80;;;13.50;99.90;;;;;;5013346;28;20443;-67
2022/10/28 06:37:58;;;;;;;7.33;3.37;;;13.50;99.90;;;;;;5013719;28;20171;-65
2022/10/28 06:40:24;;;;;;;2.47;2.27;;;13.50;99.90;;;;;;4997513;28;20692;-66
2022/10/28 06:43:00;;;;;;;4.73;3.20;;;13.50;99.90;;;;;;4997339;28;20272;-67
2022/10/28 06:45:27;;;;;;;3.40;3.10;;;13.50;99.90;;;;;;5000010;28;20456;-66
2022/10/28 06:48:01;;;;;;;6.60;3.30;;;13.50;99.90;;;;;;5014822;28;20950;-64
2022/10/28 06:50:28;;;;;;;3.67;3.10;;;13.60;99.90;;;;;;5014919;28;20429;-64
2022/10/28 06:52:57;;;;;;;2.57;2.33;;;13.70;99.90;;;;;;5014417;28;20433;-67
2022/10/28 06:55:26;;;;;;;5.93;3.00;;;13.80;99.90;;;;;;5014967;28;20824;-69
2022/10/28 06:57:52;;;;;;;8.60;3.53;;;13.90;99.90;;;;;;5014347;28;20498;-64
2022/10/28 07:00:17;;;;;;;4.93;3.10;;;14.00;99.90;;;;;;5013992;28;20413;-66
2022/10/28 07:02:43;;;;;;;3.17;2.73;;;14.10;99.90;;;;;;5012929;28;20185;-66
2022/10/28 07:05:09;;;;;;;3.77;3.43;;;14.10;99.90;;;;;;5014621;28;20232;-66
2022/10/28 07:07:38;;;;;;;6.40;2.80;;;14.20;99.90;;;;;;5014761;28;20471;-65
2022/10/28 07:10:04;;;;;;;3.37;2.70;;;14.20;99.90;;;;;;5014642;28;20179;-68
2022/10/28 07:12:30;;;;;;;5.43;3.90;;;14.30;99.90;;;;;;5025185;28;20439;-66
2022/10/28 07:14:55;;;;;;;6.47;2.80;;;14.40;99.90;;;;;;5033808;28;20448;-67
2022/10/28 07:17:21;;;;;;;2.40;2.20;;;14.40;99.90;;;;;;5006503;28;20205;-66
2022/10/28 07:19:47;;;;;;;3.07;2.60;;;14.50;99.90;;;;;;5014256;28;20171;-66
2022/10/28 07:22:12;;;;;;;4.63;2.77;;;14.60;99.90;;;;;;4996915;28;20567;-67
2022/10/28 07:24:38;;;;;;;3.40;3.10;;;14.60;99.90;;;;;;5014115;28;20197;-65
2022/10/28 07:27:03;;;;;;;7.70;5.43;;;14.70;99.90;;;;;;5024467;28;20216;-65
2022/10/28 07:29:29;;;;;;;4.67;4.00;;;14.80;99.90;;;;;;5020421;28;20194;-67
2022/10/28 07:31:55;;;;;;;2.97;2.77;;;14.90;99.90;;;;;;5014078;28;20178;-66
2022/10/28 07:34:20;;;;;;;4.17;2.97;;;15.00;99.90;;;;;;5013881;28;20682;-67
2022/10/28 07:36:53;;;;;;;4.70;3.13;;;15.10;99.90;;;;;;5014134;28;20205;-66
2022/10/28 07:39:20;;;;;;;4.23;3.00;;;15.20;99.90;;;;;;5013857;28;20221;-68
2022/10/28 07:41:45;;;;;;;2.10;1.90;;;15.30;99.90;;;;;;5013414;28;20437;-67
2022/10/28 07:44:12;;;;;;;3.20;2.80;;;15.40;99.90;;;;;;5012505;28;20443;-66
2022/10/28 07:46:37;;;;;;;5.10;2.97;;;15.60;99.90;;;;;;5013313;28;20205;-65
2022/10/28 07:49:03;;;;;;;4.10;3.00;;;15.80;99.90;;;;;;4996273;28;20909;-67
2022/10/28 07:51:29;;;;;;;6.60;3.30;;;15.90;99.90;;;;;;5014293;28;20205;-67
2022/10/28 07:53:56;;;;;;;6.33;4.23;;;16.00;99.90;;;;;;5013556;28;20230;-66
2022/10/28 07:56:21;;;;;;;4.47;2.90;;;16.10;99.90;;;;;;5014497;28;20486;-67
2022/10/28 07:58:47;;;;;;;6.20;2.90;;;16.10;99.90;;;;;;5025097;28;20476;-67
2022/10/28 08:01:16;;;;;;;3.23;2.80;;;16.10;99.90;;;;;;5033634;28;20251;-66
2022/10/28 08:03:42;;;;;;;2.50;2.30;;;16.20;99.90;;;;;;5033180;28;20427;-70
2022/10/28 08:06:16;;;;;;;4.47;2.70;;;16.30;99.90;;;;;;5015801;28;20442;-66
2022/10/28 08:08:43;;;;;;;4.30;2.53;;;16.40;99.90;;;;;;4995973;28;20455;-68
2022/10/28 08:11:17;;;;;;;3.63;3.33;;;16.50;99.90;;;;;;5020854;28;20829;-66
2022/10/28 08:13:43;;;;;;;3.23;2.73;;;16.60;99.90;;;;;;5013404;28;20803;-65
2022/10/28 08:16:09;;;;;;;4.23;3.07;;;16.70;99.90;;;;;;4995333;28;20472;-68
2022/10/28 08:18:36;;;;;;;3.47;2.90;;;16.80;99.90;;;;;;5013107;28;20843;-69
2022/10/28 08:21:03;;;;;;;4.93;3.93;;;16.90;99.90;;;;;;5013145;28;20789;-66
2022/10/28 08:23:29;;;;;;;5.60;3.27;;;17.00;99.90;;;;;;5013034;28;20496;-68
2022/10/28 08:25:55;;;;;;;6.30;4.43;;;17.10;99.90;;;;;;5020283;28;20433;-65
2022/10/28 08:28:20;;;;;;;3.10;2.80;;;17.30;99.90;;;;;;5012834;28;20467;-67
2022/10/28 08:30:47;;;;;;;4.40;2.90;;;17.40;99.90;;;;;;4996427;28;20465;-66
2022/10/28 08:33:13;;;;;;;2.90;2.60;;;17.40;99.90;;;;;;5012818;28;20185;-65
2022/10/28 08:35:39;;;;;;;8.83;3.23;;;17.50;99.90;;;;;;5013065;28;20493;-68
2022/10/28 08:38:07;;;;;;;2.90;2.33;;;17.50;99.90;;;;;;5013164;28;20469;-69
2022/10/28 08:40:46;;;;;;;7.17;3.40;;;17.60;99.90;;;;;;4994389;28;20422;-69
2022/10/28 08:43:30;;;;;;;3.90;2.83;;;17.70;99.90;;;;;;5012894;28;20417;-70
2022/10/28 08:46:10;;;;;;;7.37;3.00;;;17.70;99.90;;;;;;5012769;28;20451;-70
2022/10/28 08:48:36;;;;;;;4.90;3.97;;;17.70;99.90;;;;;;5013309;28;20443;-62
2022/10/28 08:51:16;;;;;;;14.43;4.17;;;17.70;99.90;;;;;;5012500;28;20431;-63
2022/10/28 08:53:59;;;;;;;4.03;3.63;;;17.80;99.90;;;;;;5010314;28;20449;-61
2022/10/28 08:56:29;;;;;;;5.60;3.30;;;17.80;99.90;;;;;;5013140;28;20453;-61
2022/10/28 08:58:59;;;;;;;4.00;3.67;;;17.70;99.90;;;;;;5013039;28;20429;-62
2022/10/28 09:01:46;;;;;;;7.53;3.17;;;17.70;99.90;;;;;;5013320;28;20380;-61
2022/10/28 09:04:38;;;;;;;5.90;3.47;;;17.60;99.90;;;;;;5010391;28;20989;-61
2022/10/28 09:07:04;;;;;;;7.43;2.80;;;17.60;99.90;;;;;;4999059;28;20414;-63
2022/10/28 09:09:31;;;;;;;4.47;2.87;;;17.60;99.90;;;;;;5029813;28;20413;-62
2022/10/28 09:12:12;;;;;;;3.57;2.80;;;17.70;99.90;;;;;;5013106;28;20497;-63
2022/10/28 09:15:02;;;;;;;3.83;2.40;;;17.80;99.90;;;;;;5012185;28;20437;-62
2022/10/28 09:17:41;;;;;;;5.97;2.73;;;17.90;99.90;;;;;;5011251;28;20786;-63
2022/10/28 09:20:17;;;;;;;3.50;3.20;;;18.00;99.90;;;;;;5010877;28;20421;-63
2022/10/28 09:22:58;;;;;;;3.17;2.60;;;18.00;99.90;;;;;;5011572;28;20480;-64
2022/10/28 09:26:01;;;;;;;3.60;3.30;;;18.10;99.90;;;;;;4997110;28;20552;-63
2022/10/28 09:28:30;;;;;;;4.00;3.17;;;18.30;99.90;;;;;;4983923;28;20414;-62
2022/10/28 09:31:18;;;;;;;3.53;3.10;;;18.40;99.90;;;;;;4978077;28;20452;-62
2022/10/28 09:34:16;;;;;;;5.53;3.80;;;18.50;99.90;;;;;;4996527;28;20833;-62
2022/10/28 09:37:03;;;;;;;4.63;3.63;;;18.70;99.90;;;;;;5000054;28;20823;-62
2022/10/28 09:39:39;;;;;;;3.77;3.27;;;18.80;99.90;;;;;;5023978;28;20441;-62
2022/10/28 09:42:09;;;;;;;5.53;3.80;;;18.90;99.90;;;;;;5016215;28;20492;-62
2022/10/28 09:44:55;;;;;;;5.57;3.00;;;19.00;99.90;;;;;;4998427;28;20927;-62
2022/10/28 09:47:26;;;;;;;2.87;2.63;;;19.10;99.90;;;;;;5016395;28;20804;-63
2022/10/28 09:49:55;;;;;;;3.20;2.70;;;19.10;99.90;;;;;;5016267;28;20421;-63
2022/10/28 09:52:32;;;;;;;4.90;3.00;;;19.00;99.90;;;;;;4999148;28;20430;-62
2022/10/28 09:55:03;;;;;;;4.80;2.60;;;18.70;99.90;;;;;;5015027;28;20556;-63
2022/10/28 09:57:30;;;;;;;4.20;3.20;;;18.40;99.90;;;;;;5010403;28;20421;-64
2022/10/28 09:59:57;;;;;;;6.10;3.20;;;18.10;99.90;;;;;;5014734;28;20493;-68
2022/10/28 10:02:28;;;;;;;11.10;3.90;;;18.00;99.90;;;;;;5013394;28;20766;-65
2022/10/28 10:04:56;;;;;;;3.97;3.00;;;18.00;99.90;;;;;;5017622;28;20445;-64
2022/10/28 10:07:27;;;;;;;5.27;4.20;;;18.20;99.90;;;;;;5004908;28;20778;-63
2022/10/28 10:09:52;;;;;;;2.90;2.60;;;18.80;99.90;;;;;;5015869;28;20417;-63
2022/10/28 10:12:18;;;;;;;2.27;2.10;;;19.60;99.90;;;;;;4997265;28;20469;-65
2022/10/28 10:14:48;;;;;;;4.67;2.97;;;20.50;99.90;;;;;;5015207;28;20229;-61
2022/10/28 10:17:42;;;;;;;5.20;2.40;;;21.50;99.90;;;;;;5015248;28;20201;-61
2022/10/28 10:20:20;;;;;;;2.90;2.70;;;22.50;99.90;;;;;;5000996;28;20426;-64
2022/10/28 10:22:48;;;;;;;2.57;2.00;;;23.20;99.90;;;;;;5014616;28;20400;-64
2022/10/28 10:25:19;;;;;;;3.10;2.43;;;23.70;99.90;;;;;;5015342;28;20417;-63
2022/10/28 10:28:12;;;;;;;10.20;2.90;;;24.00;98.60;;;;;;4998165;28;20418;-63
2022/10/28 10:30:44;;;;;;;2.80;2.53;;;24.40;97.90;;;;;;4997963;28;20388;-63
2022/10/28 10:33:29;;;;;;;3.73;2.50;;;24.70;97.70;;;;;;5014907;28;20442;-68
2022/10/28 10:36:03;;;;;;;5.40;2.90;;;25.10;96.40;;;;;;5014740;28;20440;-65
2022/10/28 10:38:30;;;;;;;2.67;2.33;;;25.40;96.30;;;;;;4998162;28;20438;-65
2022/10/28 10:40:56;;;;;;;2.27;2.13;;;25.80;96.40;;;;;;5015164;28;20467;-71
2022/10/28 10:43:23;;;;;;;6.73;2.13;;;26.00;95.10;;;;;;5014886;28;20410;-66
2022/10/28 10:46:04;;;;;;;2.40;2.07;;;25.80;94.40;;;;;;4997481;28;20410;-69
2022/10/28 10:48:35;;;;;;;2.50;2.30;;;25.10;94.80;;;;;;5027800;28;20468;-66
2022/10/28 10:51:26;;;;;;;1.90;1.70;;;24.40;95.60;;;;;;5030266;28;20488;-70
2022/10/28 10:53:56;;;;;;;2.43;2.23;;;23.80;96.10;;;;;;5009340;28;20412;-69
2022/10/28 10:56:25;;;;;;;5.13;2.13;;;23.50;96.70;;;;;;4997535;28;20444;-63
2022/10/28 10:58:53;;;;;;;3.40;2.07;;;23.30;96.70;;;;;;5015198;28;20404;-65
2022/10/28 11:01:22;;;;;;;3.43;1.53;;;23.10;96.20;;;;;;5014124;28;20769;-65
2022/10/28 11:04:03;;;;;;;2.53;1.77;;;22.80;95.80;;;;;;4996031;28;20428;-66
2022/10/28 11:06:32;;;;;;;2.00;1.80;;;22.70;95.90;;;;;;5012911;28;20424;-65
2022/10/28 11:09:04;;;;;;;5.27;2.63;;;22.50;96.70;;;;;;5012495;28;20817;-65
2022/10/28 11:11:33;;;;;;;3.30;2.20;;;22.40;97.30;;;;;;5014759;28;20393;-67
2022/10/28 11:14:21;;;;;;;2.40;1.93;;;22.20;97.90;;;;;;5014154;28;20431;-67
2022/10/28 11:16:52;;;;;;;3.30;2.63;;;22.20;98.40;;;;;;5014784;28;20465;-68
2022/10/28 11:19:21;;;;;;;4.03;2.23;;;22.10;98.50;;;;;;4996998;28;20509;-65
2022/10/28 11:22:14;;;;;;;2.57;2.37;;;22.10;98.90;;;;;;5014587;28;20407;-68
2022/10/28 11:24:48;;;;;;;4.70;2.20;;;22.20;98.90;;;;;;5013679;28;20534;-67
2022/10/28 11:27:49;;;;;;;2.50;2.27;;;22.30;98.20;;;;;;5014287;28;20380;-62
2022/10/28 11:30:20;;;;;;;1.63;1.30;;;22.50;97.40;;;;;;4990201;28;20422;-66
2022/10/28 11:33:11;;;;;;;4.53;2.20;;;22.70;97.30;;;;;;5014011;28;20392;-65
2022/10/28 11:35:43;;;;;;;4.43;2.33;;;22.80;97.00;;;;;;5014073;28;20538;-64
2022/10/28 11:38:28;;;;;;;2.90;1.70;;;22.80;97.20;;;;;;5013930;28;20426;-64
2022/10/28 11:41:12;;;;;;;6.43;1.50;;;22.70;97.70;;;;;;5016214;28;20509;-63
2022/10/28 11:43:52;;;;;;;2.17;1.97;;;22.50;97.50;;;;;;5029175;28;20408;-66
2022/10/28 11:46:29;;;;;;;3.87;2.53;;;22.40;98.10;;;;;;5030441;28;20430;-65
2022/10/28 11:49:16;;;;;;;2.13;1.93;;;22.40;98.40;;;;;;5013705;28;20410;-67
2022/10/28 11:52:06;;;;;;;1.93;1.67;;;22.40;98.30;;;;;;5013993;28;20446;-63
2022/10/28 11:54:35;;;;;;;3.03;2.27;;;22.30;98.40;;;;;;5013007;28;20397;-64
2022/10/28 11:57:08;;;;;;;2.57;2.20;;;22.30;98.50;;;;;;5013507;28;20494;-64
2022/10/28 11:59:49;;;;;;;4.50;1.87;;;22.10;98.80;;;;;;4996353;28;20821;-65
2022/10/28 12:02:32;;;;;;;2.43;2.07;;;22.10;99.60;;;;;;5013582;28;20413;-65
2022/10/28 12:05:31;;;;;;;2.43;2.20;;;22.00;99.90;;;;;;5013400;28;20437;-67
2022/10/28 12:08:12;;;;;;;2.50;2.30;;;21.70;99.90;;;;;;5013803;28;20403;-64
2022/10/28 12:11:12;;;;;;;3.50;2.53;;;21.40;99.90;;;;;;5013676;28;20890;-66
2022/10/28 12:13:57;;;;;;;4.70;1.83;;;21.00;99.90;;;;;;5013288;28;20517;-67
2022/10/28 12:16:29;;;;;;;3.17;2.00;;;20.90;99.90;;;;;;5013019;28;20541;-65
2022/10/28 12:18:57;;;;;;;2.70;2.50;;;20.90;99.90;;;;;;5013268;28;20422;-64
2022/10/28 12:21:34;;;;;;;2.27;2.00;;;20.90;99.90;;;;;;5013542;28;21022;-67
2022/10/28 12:24:00;;;;;;;5.30;3.10;;;21.00;99.90;;;;;;5013407;28;20905;-65
2022/10/28 12:26:37;;;;;;;2.70;2.33;;;21.20;99.90;;;;;;5013649;28;20857;-67
2022/10/28 12:29:08;;;;;;;2.37;2.13;;;21.30;99.90;;;;;;4992582;28;20969;-68
2022/10/28 12:31:46;;;;;;;3.60;3.07;;;21.50;99.90;;;;;;5014663;28;20422;-65
2022/10/28 12:34:17;;;;;;;3.20;2.90;;;21.70;99.90;;;;;;5013838;28;20429;-66
2022/10/28 12:36:48;;;;;;;3.83;2.10;;;21.90;99.90;;;;;;5012622;28;20428;-66
2022/10/28 12:39:31;;;;;;;2.60;1.87;;;22.10;99.90;;;;;;5012551;28;20412;-63
2022/10/28 12:42:00;;;;;;;5.50;2.83;;;22.30;99.90;;;;;;5012504;28;20510;-67
2022/10/28 12:44:27;;;;;;;2.27;2.17;;;22.40;99.90;;;;;;5017604;28;20433;-65
2022/10/28 12:47:02;;;;;;;3.80;2.23;;;22.50;99.90;;;;;;5022676;28;20737;-65
2022/10/28 12:49:46;;;;;;;2.47;2.00;;;22.70;99.90;;;;;;5013198;28;20376;-65
2022/10/28 12:52:23;;;;;;;4.13;2.17;;;22.70;99.90;;;;;;5013262;28;20405;-66
2022/10/28 12:55:13;;;;;;;5.40;2.20;;;22.90;99.90;;;;;;5012819;28;20434;-66
2022/10/28 12:57:46;;;;;;;2.57;2.27;;;23.10;99.40;;;;;;5013848;28;20508;-65
2022/10/28 13:00:12;;;;;;;2.30;1.43;;;23.40;97.70;;;;;;4999469;28;20979;-65
2022/10/28 13:02:45;;;;;;;5.33;2.80;;;23.60;96.70;;;;;;5016976;28;20394;-65
2022/10/28 13:05:20;;;;;;;3.37;1.50;;;23.80;96.30;;;;;;5016980;28;20206;-65
2022/10/28 13:08:30;;;;;;;2.23;2.03;;;24.10;94.50;;;;;;5017117;28;20401;-69
2022/10/28 13:11:18;;;;;;;3.27;1.57;;;24.30;94.90;;;;;;5017112;28;20414;-69
2022/10/28 13:14:01;;;;;;;3.77;2.20;;;24.50;94.40;;;;;;5016193;28;20441;-69
2022/10/28 13:16:45;;;;;;;1.67;1.43;;;24.60;94.80;;;;;;5008046;28;20541;-69
2022/10/28 13:19:40;;;;;;;3.13;2.07;;;24.70;94.90;;;;;;5013841;28;20418;-69
2022/10/28 13:22:29;;;;;;;5.50;2.67;;;24.70;94.90;;;;;;5004818;28;20445;-69
2022/10/28 13:25:18;;;;;;;3.60;2.10;;;24.60;95.40;;;;;;4996901;28;20473;-68
2022/10/28 13:27:44;;;;;;;1.70;1.60;;;24.50;95.30;;;;;;5005753;28;20421;-64
2022/10/28 13:30:16;;;;;;;4.03;1.90;;;24.50;95.60;;;;;;5016400;28;20413;-65
2022/10/28 13:32:42;;;;;;;1.53;1.43;;;24.40;95.70;;;;;;5015711;28;20246;-68
2022/10/28 13:35:22;;;;;;;2.63;2.20;;;24.40;96.20;;;;;;5013323;28;20457;-67
2022/10/28 13:37:50;;;;;;;2.10;1.70;;;24.40;96.70;;;;;;5006369;28;20423;-66
2022/10/28 13:40:31;;;;;;;4.20;1.80;;;24.20;96.80;;;;;;4995234;28;20433;-67
2022/10/28 13:42:58;;;;;;;3.07;1.63;;;24.20;96.70;;;;;;5011596;28;20426;-63
2022/10/28 13:45:51;;;;;;;10.77;2.07;;;24.10;96.80;;;;;;5014084;28;20415;-67
2022/10/28 13:48:29;;;;;;;3.63;2.03;;;24.00;96.80;;;;;;5011567;28;20454;-65
2022/10/28 13:51:09;;;;;;;2.10;1.90;;;23.90;97.00;;;;;;5014741;28;20467;-64
2022/10/28 13:53:44;;;;;;;3.23;1.90;;;23.80;96.80;;;;;;5010795;28;20437;-66
2022/10/28 13:56:34;;;;;;;3.87;1.63;;;23.80;96.70;;;;;;4999938;28;20457;-63
2022/10/28 13:59:25;;;;;;;2.47;1.57;;;23.80;96.80;;;;;;5008212;28;20507;-64
2022/10/28 14:01:58;;;;;;;3.63;1.87;;;23.70;96.70;;;;;;4989784;28;20700;-64
2022/10/28 14:04:33;;;;;;;4.33;1.83;;;23.60;96.60;;;;;;5014809;28;20452;-64
2022/10/28 14:07:09;;;;;;;4.60;1.80;;;23.50;96.90;;;;;;5015106;28;20434;-68
2022/10/28 14:09:36;;;;;;;1.57;1.47;;;23.40;97.20;;;;;;5022545;28;20418;-67
2022/10/28 14:12:12;;;;;;;2.60;1.93;;;23.30;97.60;;;;;;5035304;28;20421;-69
2022/10/28 14:14:59;;;;;;;3.00;2.00;;;23.20;97.70;;;;;;5034955;28;20506;-68
2022/10/28 14:17:52;;;;;;;3.33;2.10;;;23.20;97.90;;;;;;4995486;28;20621;-64
2022/10/28 14:20:30;;;;;;;2.33;2.00;;;23.20;98.20;;;;;;4984670;28;20524;-68
2022/10/28 14:22:56;;;;;;;2.30;2.07;;;23.10;98.40;;;;;;5002523;28;20507;-67
2022/10/28 14:25:44;;;;;;;5.67;2.10;;;23.20;98.40;;;;;;5015203;28;20453;-66
2022/10/28 14:28:28;;;;;;;3.63;2.93;;;23.20;98.30;;;;;;5014996;28;20400;-67
2022/10/28 14:31:11;;;;;;;6.10;2.40;;;23.20;98.30;;;;;;5014845;28;20475;-64
2022/10/28 14:33:43;;;;;;;3.43;2.13;;;23.20;98.20;;;;;;5013840;28;20956;-68
2022/10/28 14:36:20;;;;;;;3.00;2.40;;;23.30;98.60;;;;;;5014955;28;20524;-64
2022/10/28 14:38:51;;;;;;;2.00;1.50;;;23.30;98.20;;;;;;4997340;28;20404;-66
2022/10/28 14:41:17;;;;;;;3.70;3.20;;;23.30;98.50;;;;;;5015268;28;20736;-68
2022/10/28 14:43:49;;;;;;;2.20;2.00;;;23.40;98.60;;;;;;5015023;28;20517;-65
2022/10/28 14:46:34;;;;;;;3.53;2.13;;;23.40;98.50;;;;;;5014979;28;20198;-65
2022/10/28 14:49:02;;;;;;;2.90;2.20;;;23.40;98.50;;;;;;5012403;28;20394;-65
2022/10/28 14:51:48;;;;;;;2.60;2.20;;;23.40;98.20;;;;;;5014643;28;20445;-68
2022/10/28 14:54:17;;;;;;;3.23;2.27;;;23.30;98.20;;;;;;5011522;28;20427;-63
2022/10/28 14:56:45;;;;;;;2.40;2.20;;;23.30;98.30;;;;;;5014527;28;20447;-67
2022/10/28 14:59:36;;;;;;;3.20;2.13;;;23.30;98.40;;;;;;5014747;28;20381;-64
2022/10/28 15:02:11;;;;;;;3.57;2.40;;;23.30;98.50;;;;;;5000353;28;20413;-64
2022/10/28 15:04:39;;;;;;;3.60;2.40;;;23.30;98.50;;;;;;5013745;28;20414;-68
2022/10/28 15:07:15;;;;;;;4.73;3.40;;;23.20;98.50;;;;;;4997116;28;20774;-67
2022/10/28 15:09:43;;;;;;;3.10;2.80;;;23.20;98.60;;;;;;5014308;28;20420;-67
2022/10/28 15:12:18;;;;;;;3.50;2.40;;;23.10;98.60;;;;;;5014798;28;20472;-64
2022/10/28 15:14:55;;;;;;;8.47;3.30;;;23.10;98.70;;;;;;5018153;28;20437;-68
2022/10/28 15:17:29;;;;;;;4.13;3.13;;;23.00;98.80;;;;;;5034690;28;20786;-64
2022/10/28 15:19:57;;;;;;;3.20;2.27;;;23.00;98.90;;;;;;5017738;28;20418;-68
2022/10/28 15:22:31;;;;;;;4.23;2.60;;;22.90;99.00;;;;;;5013837;28;20426;-65
2022/10/28 15:25:14;;;;;;;3.10;2.20;;;22.80;99.20;;;;;;5013917;28;21029;-68
2022/10/28 15:27:42;;;;;;;6.53;2.43;;;22.80;99.50;;;;;;5014150;28;20419;-68
2022/10/28 15:30:19;;;;;;;6.20;2.60;;;22.70;99.50;;;;;;5019020;28;20926;-67
2022/10/28 15:32:45;;;;;;;2.50;2.30;;;22.60;99.60;;;;;;5014065;28;20405;-64
2022/10/28 15:35:29;;;;;;;4.87;2.47;;;22.50;99.60;;;;;;5013920;28;20824;-65
2022/10/28 15:37:58;;;;;;;4.40;2.17;;;22.50;99.80;;;;;;5014612;28;20495;-66
2022/10/28 15:40:42;;;;;;;2.53;2.30;;;22.40;99.50;;;;;;5013455;28;20391;-65
2022/10/28 15:43:18;;;;;;;2.40;2.10;;;22.40;99.50;;;;;;5009814;28;20406;-65
2022/10/28 15:45:44;;;;;;;4.50;2.60;;;22.30;99.90;;;;;;5028366;28;20454;-64
2022/10/28 15:48:18;;;;;;;4.47;2.80;;;22.30;99.90;;;;;;5015656;28;20398;-68
2022/10/28 15:50:43;;;;;;;3.03;2.30;;;22.30;99.90;;;;;;5022229;28;20432;-65
2022/10/28 15:53:09;;;;;;;7.17;3.80;;;22.20;99.90;;;;;;4995579;28;20487;-68
2022/10/28 15:55:36;;;;;;;6.00;2.93;;;22.00;99.90;;;;;;5013935;28;20204;-64
2022/10/28 15:58:09;;;;;;;5.07;2.90;;;21.90;99.90;;;;;;5013994;28;20655;-69
2022/10/28 16:00:49;;;;;;;3.73;2.43;;;21.90;99.90;;;;;;5013588;28;20837;-67
2022/10/28 16:03:42;;;;;;;5.10;2.70;;;21.80;99.90;;;;;;5013318;28;20401;-67
2022/10/28 16:06:24;;;;;;;3.00;2.70;;;21.60;99.90;;;;;;5013262;28;20448;-68
2022/10/28 16:09:20;;;;;;;5.60;2.33;;;21.50;99.90;;;;;;5013727;28;20409;-64
2022/10/28 16:11:51;;;;;;;4.30;2.80;;;21.50;99.90;;;;;;5013460;28;20386;-67
2022/10/28 16:14:38;;;;;;;3.90;2.50;;;21.40;99.90;;;;;;5010648;28;20441;-65
2022/10/28 16:17:15;;;;;;;8.20;4.83;;;21.40;99.90;;;;;;5002491;28;20440;-66
2022/10/28 16:20:02;;;;;;;4.27;2.23;;;21.30;99.90;;;;;;4995792;28;20410;-66
2022/10/28 16:22:29;;;;;;;5.70;2.70;;;21.20;99.90;;;;;;5020117;28;20429;-66
2022/10/28 16:24:56;;;;;;;5.30;2.70;;;21.10;99.90;;;;;;5011365;28;20448;-67
2022/10/28 16:27:28;;;;;;;4.87;2.50;;;21.00;99.90;;;;;;4995264;28;20423;-64
2022/10/28 16:29:54;;;;;;;15.20;2.67;;;20.90;99.90;;;;;;4979336;28;20408;-68
2022/10/28 16:32:28;;;;;;;5.63;3.17;;;20.90;99.90;;;;;;5008853;28;20706;-64
2022/10/28 16:34:57;;;;;;;4.20;2.77;;;20.80;99.90;;;;;;5026491;28;20280;-70
2022/10/28 16:37:26;;;;;;;5.60;3.20;;;20.70;99.90;;;;;;5015236;28;20527;-65
2022/10/28 16:39:52;;;;;;;5.17;3.13;;;20.60;99.90;;;;;;5005609;28;20418;-67
2022/10/28 16:42:19;;;;;;;5.07;3.77;;;20.50;99.90;;;;;;4993665;28;20765;-64
2022/10/28 16:44:45;;;;;;;5.63;2.70;;;20.40;99.90;;;;;;4988232;28;20445;-65
2022/10/28 16:47:12;;;;;;;6.47;2.13;;;20.40;99.90;;;;;;5003803;28;20786;-62
2022/10/28 16:49:38;;;;;;;5.13;2.30;;;20.30;99.90;;;;;;4995589;28;20571;-62
2022/10/28 16:52:04;;;;;;;2.50;2.30;;;20.20;99.90;;;;;;5011675;28;20431;-62
2022/10/28 16:54:30;;;;;;;1.93;1.80;;;20.20;99.90;;;;;;5012866;28;20859;-64
2022/10/28 16:56:56;;;;;;;3.67;2.07;;;20.20;99.90;;;;;;5012934;28;20427;-64
2022/10/28 16:59:22;;;;;;;4.13;2.10;;;20.10;99.90;;;;;;5013093;28;20182;-63
2022/10/28 17:01:48;;;;;;;3.50;2.47;;;20.10;99.90;;;;;;5013152;28;20418;-66
2022/10/28 17:04:14;;;;;;;2.90;2.30;;;20.10;99.90;;;;;;5014725;28;20195;-67
2022/10/28 17:06:39;;;;;;;6.23;2.33;;;20.20;99.90;;;;;;5016853;28;20436;-64
2022/10/28 17:09:05;;;;;;;3.50;3.00;;;20.20;99.90;;;;;;5012713;28;20653;-65
2022/10/28 17:11:31;;;;;;;8.07;5.57;;;20.10;99.90;;;;;;5013062;28;20175;-66
2022/10/28 17:13:56;;;;;;;3.13;2.83;;;20.10;99.90;;;;;;5012308;28;20306;-64
2022/10/28 17:16:22;;;;;;;6.90;4.50;;;20.10;99.90;;;;;;5012408;28;20199;-67